sensor_id;sensor_type;location;lat;lon;timestamp;P1;durP1;ratioP1;P2;durP2;ratioP2
68025;SDS011;54819;48.030;14.710;2023-05-14T00:01:01;9.20;;;5.20;;
68025;SDS011;54819;48.030;14.710;2023-05-14T00:03:28;9.30;;;6.10;;
68025;SDS011;54819;48.030;14.710;2023-05-14T00:05:55;8.30;;;5.50;;
68025;SDS011;54819;48.030;14.710;2023-05-14T00:08:22;8.30;;;5.10;;
68025;SDS011;54819;48.030;14.710;2023-05-14T00:10:48;8.50;;;4.90;;
68025;SDS011;54819;48.030;14.710;2023-05-14T00:13:15;8.90;;;5.00;;
68025;SDS011;54819;48.030;14.710;2023-05-14T00:15:42;6.60;;;4.50;;
68025;SDS011;54819;48.030;14.710;2023-05-14T00:18:09;8.50;;;5.20;;
68025;SDS011;54819;48.030;14.710;2023-05-14T00:20:38;8.00;;;4.70;;
68025;SDS011;54819;48.030;14.710;2023-05-14T00:23:04;7.20;;;4.60;;
68025;SDS011;54819;48.030;14.710;2023-05-14T00:25:31;9.60;;;4.80;;
68025;SDS011;54819;48.030;14.710;2023-05-14T00:27:58;7.90;;;4.10;;
68025;SDS011;54819;48.030;14.710;2023-05-14T00:30:25;6.20;;;3.90;;
68025;SDS011;54819;48.030;14.710;2023-05-14T00:32:52;7.10;;;4.30;;
68025;SDS011;54819;48.030;14.710;2023-05-14T00:35:19;6.60;;;3.50;;
68025;SDS011;54819;48.030;14.710;2023-05-14T00:37:47;9.60;;;4.10;;
68025;SDS011;54819;48.030;14.710;2023-05-14T00:40:13;5.40;;;3.30;;
68025;SDS011;54819;48.030;14.710;2023-05-14T00:42:41;6.60;;;4.10;;
68025;SDS011;54819;48.030;14.710;2023-05-14T00:45:08;8.00;;;5.00;;
68025;SDS011;54819;48.030;14.710;2023-05-14T00:47:35;7.90;;;4.90;;
68025;SDS011;54819;48.030;14.710;2023-05-14T00:50:05;7.50;;;4.60;;
68025;SDS011;54819;48.030;14.710;2023-05-14T00:52:32;8.90;;;5.10;;
68025;SDS011;54819;48.030;14.710;2023-05-14T00:55:02;6.90;;;4.50;;
68025;SDS011;54819;48.030;14.710;2023-05-14T00:57:30;6.80;;;4.30;;
68025;SDS011;54819;48.030;14.710;2023-05-14T00:59:57;8.30;;;4.50;;
68025;SDS011;54819;48.030;14.710;2023-05-14T01:02:24;6.80;;;3.80;;
68025;SDS011;54819;48.030;14.710;2023-05-14T01:04:52;6.60;;;3.90;;
68025;SDS011;54819;48.030;14.710;2023-05-14T01:10:31;7.70;;;4.10;;
68025;SDS011;54819;48.030;14.710;2023-05-14T01:13:26;5.60;;;3.60;;
68025;SDS011;54819;48.030;14.710;2023-05-14T01:16:11;7.20;;;4.40;;
68025;SDS011;54819;48.030;14.710;2023-05-14T01:18:41;8.40;;;4.40;;
68025;SDS011;54819;48.030;14.710;2023-05-14T01:24:01;6.70;;;3.90;;
68025;SDS011;54819;48.030;14.710;2023-05-14T01:26:28;6.50;;;3.90;;
68025;SDS011;54819;48.030;14.710;2023-05-14T01:29:22;6.00;;;3.50;;
68025;SDS011;54819;48.030;14.710;2023-05-14T01:31:54;6.40;;;3.30;;
68025;SDS011;54819;48.030;14.710;2023-05-14T01:34:23;6.20;;;3.40;;
68025;SDS011;54819;48.030;14.710;2023-05-14T01:36:54;5.50;;;3.30;;
68025;SDS011;54819;48.030;14.710;2023-05-14T01:39:23;8.10;;;4.40;;
68025;SDS011;54819;48.030;14.710;2023-05-14T01:41:53;7.10;;;4.30;;
68025;SDS011;54819;48.030;14.710;2023-05-14T01:44:20;6.30;;;4.10;;
68025;SDS011;54819;48.030;14.710;2023-05-14T01:46:47;8.50;;;3.90;;
68025;SDS011;54819;48.030;14.710;2023-05-14T01:49:14;6.70;;;3.80;;
68025;SDS011;54819;48.030;14.710;2023-05-14T01:51:44;6.10;;;3.70;;
68025;SDS011;54819;48.030;14.710;2023-05-14T01:54:11;7.70;;;3.80;;
68025;SDS011;54819;48.030;14.710;2023-05-14T01:56:37;6.60;;;3.60;;
68025;SDS011;54819;48.030;14.710;2023-05-14T01:59:04;6.90;;;3.50;;
68025;SDS011;54819;48.030;14.710;2023-05-14T02:01:31;7.90;;;4.30;;
68025;SDS011;54819;48.030;14.710;2023-05-14T02:03:59;6.00;;;3.60;;
68025;SDS011;54819;48.030;14.710;2023-05-14T02:06:26;7.30;;;4.50;;
68025;SDS011;54819;48.030;14.710;2023-05-14T02:08:54;6.30;;;3.90;;
68025;SDS011;54819;48.030;14.710;2023-05-14T02:11:21;6.50;;;4.20;;
68025;SDS011;54819;48.030;14.710;2023-05-14T02:13:48;7.10;;;3.70;;
68025;SDS011;54819;48.030;14.710;2023-05-14T02:16:14;7.30;;;4.10;;
68025;SDS011;54819;48.030;14.710;2023-05-14T02:18:41;6.10;;;3.90;;
68025;SDS011;54819;48.030;14.710;2023-05-14T02:21:08;7.40;;;4.40;;
68025;SDS011;54819;48.030;14.710;2023-05-14T02:23:34;7.50;;;4.50;;
68025;SDS011;54819;48.030;14.710;2023-05-14T02:26:09;8.60;;;4.60;;
68025;SDS011;54819;48.030;14.710;2023-05-14T02:28:36;9.30;;;5.40;;
68025;SDS011;54819;48.030;14.710;2023-05-14T02:31:02;7.90;;;4.90;;
68025;SDS011;54819;48.030;14.710;2023-05-14T02:33:29;9.80;;;6.00;;
68025;SDS011;54819;48.030;14.710;2023-05-14T02:35:56;10.30;;;6.60;;
68025;SDS011;54819;48.030;14.710;2023-05-14T02:38:23;11.60;;;6.80;;
68025;SDS011;54819;48.030;14.710;2023-05-14T02:40:49;11.00;;;6.50;;
68025;SDS011;54819;48.030;14.710;2023-05-14T02:43:16;10.80;;;6.10;;
68025;SDS011;54819;48.030;14.710;2023-05-14T02:45:43;9.00;;;5.40;;
68025;SDS011;54819;48.030;14.710;2023-05-14T02:48:10;8.70;;;5.50;;
68025;SDS011;54819;48.030;14.710;2023-05-14T02:50:36;8.30;;;4.80;;
68025;SDS011;54819;48.030;14.710;2023-05-14T02:53:03;8.70;;;5.20;;
68025;SDS011;54819;48.030;14.710;2023-05-14T02:55:30;7.40;;;5.40;;
68025;SDS011;54819;48.030;14.710;2023-05-14T02:57:57;12.50;;;6.10;;
68025;SDS011;54819;48.030;14.710;2023-05-14T03:00:23;9.00;;;5.30;;
68025;SDS011;54819;48.030;14.710;2023-05-14T03:02:51;7.90;;;5.20;;
68025;SDS011;54819;48.030;14.710;2023-05-14T03:05:18;9.10;;;5.10;;
68025;SDS011;54819;48.030;14.710;2023-05-14T03:07:46;11.70;;;5.20;;
68025;SDS011;54819;48.030;14.710;2023-05-14T03:10:12;8.60;;;5.00;;
68025;SDS011;54819;48.030;14.710;2023-05-14T03:12:39;8.10;;;4.50;;
68025;SDS011;54819;48.030;14.710;2023-05-14T03:15:06;7.20;;;4.60;;
68025;SDS011;54819;48.030;14.710;2023-05-14T03:17:34;7.70;;;4.70;;
68025;SDS011;54819;48.030;14.710;2023-05-14T03:20:01;8.00;;;5.10;;
68025;SDS011;54819;48.030;14.710;2023-05-14T03:24:55;8.30;;;4.90;;
68025;SDS011;54819;48.030;14.710;2023-05-14T03:27:22;9.30;;;5.50;;
68025;SDS011;54819;48.030;14.710;2023-05-14T03:29:48;8.40;;;4.60;;
68025;SDS011;54819;48.030;14.710;2023-05-14T03:32:16;7.60;;;4.10;;
68025;SDS011;54819;48.030;14.710;2023-05-14T03:37:10;6.20;;;3.80;;
68025;SDS011;54819;48.030;14.710;2023-05-14T03:39:37;6.90;;;4.30;;
68025;SDS011;54819;48.030;14.710;2023-05-14T03:42:04;7.30;;;4.00;;
68025;SDS011;54819;48.030;14.710;2023-05-14T03:44:30;6.70;;;4.10;;
68025;SDS011;54819;48.030;14.710;2023-05-14T03:46:57;6.50;;;4.10;;
68025;SDS011;54819;48.030;14.710;2023-05-14T03:49:24;6.90;;;4.30;;
68025;SDS011;54819;48.030;14.710;2023-05-14T03:51:50;7.30;;;4.60;;
68025;SDS011;54819;48.030;14.710;2023-05-14T03:54:17;7.60;;;4.60;;
68025;SDS011;54819;48.030;14.710;2023-05-14T03:56:44;8.90;;;4.90;;
68025;SDS011;54819;48.030;14.710;2023-05-14T03:59:11;7.40;;;4.30;;
68025;SDS011;54819;48.030;14.710;2023-05-14T04:01:38;7.60;;;4.50;;
68025;SDS011;54819;48.030;14.710;2023-05-14T04:04:05;8.50;;;5.30;;
68025;SDS011;54819;48.030;14.710;2023-05-14T04:06:32;9.00;;;5.10;;
68025;SDS011;54819;48.030;14.710;2023-05-14T04:11:27;11.50;;;5.50;;
68025;SDS011;54819;48.030;14.710;2023-05-14T04:13:54;8.40;;;5.40;;
68025;SDS011;54819;48.030;14.710;2023-05-14T04:16:21;10.30;;;6.10;;
68025;SDS011;54819;48.030;14.710;2023-05-14T04:18:48;9.50;;;5.70;;
68025;SDS011;54819;48.030;14.710;2023-05-14T04:21:14;14.50;;;6.90;;
68025;SDS011;54819;48.030;14.710;2023-05-14T04:23:41;11.50;;;6.80;;
68025;SDS011;54819;48.030;14.710;2023-05-14T04:26:07;13.60;;;6.60;;
68025;SDS011;54819;48.030;14.710;2023-05-14T04:28:34;9.80;;;5.90;;
68025;SDS011;54819;48.030;14.710;2023-05-14T04:31:01;10.30;;;6.50;;
68025;SDS011;54819;48.030;14.710;2023-05-14T04:33:27;9.70;;;5.90;;
68025;SDS011;54819;48.030;14.710;2023-05-14T04:35:54;9.60;;;6.10;;
68025;SDS011;54819;48.030;14.710;2023-05-14T04:38:21;7.00;;;4.30;;
68025;SDS011;54819;48.030;14.710;2023-05-14T04:40:48;6.20;;;3.90;;
68025;SDS011;54819;48.030;14.710;2023-05-14T04:43:15;7.60;;;4.30;;
68025;SDS011;54819;48.030;14.710;2023-05-14T04:45:42;6.60;;;4.00;;
68025;SDS011;54819;48.030;14.710;2023-05-14T04:48:09;6.70;;;3.90;;
68025;SDS011;54819;48.030;14.710;2023-05-14T04:50:36;5.50;;;3.60;;
68025;SDS011;54819;48.030;14.710;2023-05-14T04:53:02;7.20;;;4.40;;
68025;SDS011;54819;48.030;14.710;2023-05-14T04:55:29;7.90;;;4.50;;
68025;SDS011;54819;48.030;14.710;2023-05-14T04:57:56;13.10;;;8.10;;
68025;SDS011;54819;48.030;14.710;2023-05-14T05:00:23;10.70;;;7.30;;
68025;SDS011;54819;48.030;14.710;2023-05-14T05:02:50;12.70;;;7.60;;
68025;SDS011;54819;48.030;14.710;2023-05-14T05:05:17;11.70;;;7.60;;
68025;SDS011;54819;48.030;14.710;2023-05-14T05:07:44;12.00;;;8.50;;
68025;SDS011;54819;48.030;14.710;2023-05-14T05:10:10;11.60;;;7.90;;
68025;SDS011;54819;48.030;14.710;2023-05-14T05:12:37;14.90;;;8.90;;
68025;SDS011;54819;48.030;14.710;2023-05-14T05:15:04;10.80;;;7.10;;
68025;SDS011;54819;48.030;14.710;2023-05-14T05:19:59;11.60;;;6.70;;
68025;SDS011;54819;48.030;14.710;2023-05-14T05:22:26;9.80;;;6.40;;
68025;SDS011;54819;48.030;14.710;2023-05-14T05:24:53;13.50;;;7.00;;
68025;SDS011;54819;48.030;14.710;2023-05-14T05:27:19;11.00;;;6.80;;
68025;SDS011;54819;48.030;14.710;2023-05-14T05:29:47;10.30;;;6.50;;
68025;SDS011;54819;48.030;14.710;2023-05-14T05:32:14;12.20;;;7.40;;
68025;SDS011;54819;48.030;14.710;2023-05-14T05:34:40;12.90;;;8.20;;
68025;SDS011;54819;48.030;14.710;2023-05-14T05:37:07;13.50;;;9.00;;
68025;SDS011;54819;48.030;14.710;2023-05-14T05:39:38;19.90;;;9.50;;
68025;SDS011;54819;48.030;14.710;2023-05-14T05:42:05;13.70;;;9.20;;
68025;SDS011;54819;48.030;14.710;2023-05-14T05:44:33;14.90;;;9.00;;
68025;SDS011;54819;48.030;14.710;2023-05-14T05:46:59;12.90;;;8.90;;
68025;SDS011;54819;48.030;14.710;2023-05-14T05:49:26;13.20;;;8.50;;
68025;SDS011;54819;48.030;14.710;2023-05-14T05:51:53;12.50;;;8.50;;
68025;SDS011;54819;48.030;14.710;2023-05-14T05:54:21;14.10;;;9.10;;
68025;SDS011;54819;48.030;14.710;2023-05-14T05:56:49;14.70;;;9.40;;
68025;SDS011;54819;48.030;14.710;2023-05-14T05:59:16;15.10;;;9.60;;
68025;SDS011;54819;48.030;14.710;2023-05-14T06:01:42;13.90;;;9.40;;
68025;SDS011;54819;48.030;14.710;2023-05-14T06:04:09;49.40;;;16.60;;
68025;SDS011;54819;48.030;14.710;2023-05-14T06:06:36;14.80;;;9.60;;
68025;SDS011;54819;48.030;14.710;2023-05-14T06:09:03;19.60;;;10.00;;
68025;SDS011;54819;48.030;14.710;2023-05-14T06:11:30;17.70;;;9.80;;
68025;SDS011;54819;48.030;14.710;2023-05-14T06:13:56;16.10;;;10.40;;
68025;SDS011;54819;48.030;14.710;2023-05-14T06:16:23;18.10;;;10.50;;
68025;SDS011;54819;48.030;14.710;2023-05-14T06:18:50;16.30;;;10.20;;
68025;SDS011;54819;48.030;14.710;2023-05-14T06:21:18;22.50;;;11.80;;
68025;SDS011;54819;48.030;14.710;2023-05-14T06:23:44;16.10;;;10.00;;
68025;SDS011;54819;48.030;14.710;2023-05-14T06:26:11;15.70;;;10.80;;
68025;SDS011;54819;48.030;14.710;2023-05-14T06:28:38;26.80;;;11.60;;
68025;SDS011;54819;48.030;14.710;2023-05-14T06:31:05;16.20;;;9.80;;
68025;SDS011;54819;48.030;14.710;2023-05-14T06:33:31;18.00;;;10.40;;
68025;SDS011;54819;48.030;14.710;2023-05-14T06:35:59;13.80;;;9.10;;
68025;SDS011;54819;48.030;14.710;2023-05-14T06:38:30;15.40;;;10.40;;
68025;SDS011;54819;48.030;14.710;2023-05-14T06:40:57;34.20;;;13.10;;
68025;SDS011;54819;48.030;14.710;2023-05-14T06:43:24;16.10;;;11.10;;
68025;SDS011;54819;48.030;14.710;2023-05-14T06:45:51;17.50;;;11.30;;
68025;SDS011;54819;48.030;14.710;2023-05-14T06:48:18;16.00;;;10.90;;
68025;SDS011;54819;48.030;14.710;2023-05-14T06:50:47;16.00;;;9.30;;
68025;SDS011;54819;48.030;14.710;2023-05-14T06:53:15;14.80;;;10.20;;
68025;SDS011;54819;48.030;14.710;2023-05-14T06:55:42;18.60;;;10.80;;
68025;SDS011;54819;48.030;14.710;2023-05-14T06:58:08;15.80;;;10.00;;
68025;SDS011;54819;48.030;14.710;2023-05-14T07:00:35;16.60;;;10.60;;
68025;SDS011;54819;48.030;14.710;2023-05-14T07:03:02;14.70;;;9.50;;
68025;SDS011;54819;48.030;14.710;2023-05-14T07:05:29;15.30;;;10.30;;
68025;SDS011;54819;48.030;14.710;2023-05-14T07:07:56;13.80;;;9.20;;
68025;SDS011;54819;48.030;14.710;2023-05-14T07:10:23;17.30;;;10.10;;
68025;SDS011;54819;48.030;14.710;2023-05-14T07:12:50;13.70;;;8.50;;
68025;SDS011;54819;48.030;14.710;2023-05-14T07:15:17;15.00;;;9.50;;
68025;SDS011;54819;48.030;14.710;2023-05-14T07:17:44;13.40;;;9.20;;
68025;SDS011;54819;48.030;14.710;2023-05-14T07:20:11;16.80;;;10.90;;
68025;SDS011;54819;48.030;14.710;2023-05-14T07:22:38;16.70;;;10.20;;
68025;SDS011;54819;48.030;14.710;2023-05-14T07:25:05;13.30;;;8.20;;
68025;SDS011;54819;48.030;14.710;2023-05-14T07:27:33;14.60;;;9.20;;
68025;SDS011;54819;48.030;14.710;2023-05-14T07:29:59;16.10;;;9.40;;
68025;SDS011;54819;48.030;14.710;2023-05-14T07:32:26;17.40;;;9.20;;
68025;SDS011;54819;48.030;14.710;2023-05-14T07:34:53;15.00;;;9.50;;
68025;SDS011;54819;48.030;14.710;2023-05-14T07:37:19;13.80;;;9.80;;
68025;SDS011;54819;48.030;14.710;2023-05-14T07:39:49;16.10;;;9.40;;
68025;SDS011;54819;48.030;14.710;2023-05-14T07:42:16;15.20;;;8.90;;
68025;SDS011;54819;48.030;14.710;2023-05-14T07:45:01;14.10;;;8.50;;
68025;SDS011;54819;48.030;14.710;2023-05-14T07:47:28;14.50;;;8.30;;
68025;SDS011;54819;48.030;14.710;2023-05-14T07:49:56;14.90;;;8.60;;
68025;SDS011;54819;48.030;14.710;2023-05-14T07:52:23;14.40;;;8.40;;
68025;SDS011;54819;48.030;14.710;2023-05-14T07:54:50;12.40;;;9.10;;
68025;SDS011;54819;48.030;14.710;2023-05-14T07:57:18;14.20;;;8.80;;
68025;SDS011;54819;48.030;14.710;2023-05-14T07:59:46;15.50;;;9.20;;
68025;SDS011;54819;48.030;14.710;2023-05-14T08:02:13;14.10;;;9.20;;
68025;SDS011;54819;48.030;14.710;2023-05-14T08:04:43;14.40;;;8.50;;
68025;SDS011;54819;48.030;14.710;2023-05-14T08:07:10;15.80;;;9.90;;
68025;SDS011;54819;48.030;14.710;2023-05-14T08:09:37;13.90;;;9.00;;
68025;SDS011;54819;48.030;14.710;2023-05-14T08:12:05;17.70;;;10.00;;
68025;SDS011;54819;48.030;14.710;2023-05-14T08:14:33;15.50;;;10.40;;
68025;SDS011;54819;48.030;14.710;2023-05-14T08:16:59;12.10;;;9.50;;
68025;SDS011;54819;48.030;14.710;2023-05-14T08:19:26;13.90;;;9.70;;
68025;SDS011;54819;48.030;14.710;2023-05-14T08:21:53;15.20;;;9.30;;
68025;SDS011;54819;48.030;14.710;2023-05-14T08:24:20;13.30;;;9.10;;
68025;SDS011;54819;48.030;14.710;2023-05-14T08:26:47;15.30;;;9.90;;
68025;SDS011;54819;48.030;14.710;2023-05-14T08:29:14;15.20;;;10.10;;
68025;SDS011;54819;48.030;14.710;2023-05-14T08:31:42;12.80;;;9.80;;
68025;SDS011;54819;48.030;14.710;2023-05-14T08:34:09;13.10;;;9.10;;
68025;SDS011;54819;48.030;14.710;2023-05-14T08:36:37;13.00;;;8.50;;
68025;SDS011;54819;48.030;14.710;2023-05-14T08:39:04;12.70;;;8.70;;
68025;SDS011;54819;48.030;14.710;2023-05-14T08:41:33;11.80;;;7.80;;
68025;SDS011;54819;48.030;14.710;2023-05-14T08:44:12;11.70;;;7.50;;
68025;SDS011;54819;48.030;14.710;2023-05-14T08:46:40;11.00;;;8.10;;
68025;SDS011;54819;48.030;14.710;2023-05-14T08:52:03;12.90;;;9.50;;
68025;SDS011;54819;48.030;14.710;2023-05-14T08:54:30;14.40;;;9.00;;
68025;SDS011;54819;48.030;14.710;2023-05-14T08:56:58;12.00;;;8.20;;
68025;SDS011;54819;48.030;14.710;2023-05-14T08:59:24;13.70;;;8.50;;
68025;SDS011;54819;48.030;14.710;2023-05-14T09:01:53;11.70;;;7.20;;
68025;SDS011;54819;48.030;14.710;2023-05-14T09:04:23;13.90;;;9.00;;
68025;SDS011;54819;48.030;14.710;2023-05-14T09:06:52;11.70;;;8.60;;
68025;SDS011;54819;48.030;14.710;2023-05-14T09:09:21;11.10;;;7.00;;
68025;SDS011;54819;48.030;14.710;2023-05-14T09:11:52;14.60;;;8.70;;
68025;SDS011;54819;48.030;14.710;2023-05-14T09:14:21;11.00;;;7.70;;
68025;SDS011;54819;48.030;14.710;2023-05-14T09:16:49;17.40;;;9.30;;
68025;SDS011;54819;48.030;14.710;2023-05-14T09:19:17;14.30;;;8.70;;
68025;SDS011;54819;48.030;14.710;2023-05-14T09:21:47;15.90;;;9.80;;
68025;SDS011;54819;48.030;14.710;2023-05-14T09:24:22;18.00;;;9.30;;
68025;SDS011;54819;48.030;14.710;2023-05-14T09:26:52;41.50;;;15.60;;
68025;SDS011;54819;48.030;14.710;2023-05-14T09:29:20;14.70;;;8.30;;
68025;SDS011;54819;48.030;14.710;2023-05-14T09:31:49;13.80;;;8.20;;
68025;SDS011;54819;48.030;14.710;2023-05-14T09:34:25;12.30;;;8.50;;
68025;SDS011;54819;48.030;14.710;2023-05-14T09:36:59;11.90;;;8.50;;
68025;SDS011;54819;48.030;14.710;2023-05-14T09:39:28;13.60;;;9.30;;
68025;SDS011;54819;48.030;14.710;2023-05-14T09:41:56;11.40;;;8.20;;
68025;SDS011;54819;48.030;14.710;2023-05-14T09:44:24;12.20;;;9.70;;
68025;SDS011;54819;48.030;14.710;2023-05-14T09:46:52;12.10;;;9.70;;
68025;SDS011;54819;48.030;14.710;2023-05-14T09:49:19;13.80;;;8.50;;
68025;SDS011;54819;48.030;14.710;2023-05-14T09:51:50;14.50;;;9.20;;
68025;SDS011;54819;48.030;14.710;2023-05-14T09:54:17;13.20;;;9.30;;
68025;SDS011;54819;48.030;14.710;2023-05-14T09:56:44;10.70;;;8.30;;
68025;SDS011;54819;48.030;14.710;2023-05-14T09:59:11;11.90;;;9.40;;
68025;SDS011;54819;48.030;14.710;2023-05-14T10:01:39;13.50;;;9.20;;
68025;SDS011;54819;48.030;14.710;2023-05-14T10:04:08;13.60;;;9.10;;
68025;SDS011;54819;48.030;14.710;2023-05-14T10:06:38;12.60;;;9.10;;
68025;SDS011;54819;48.030;14.710;2023-05-14T10:09:12;12.80;;;8.10;;
68025;SDS011;54819;48.030;14.710;2023-05-14T10:11:43;11.40;;;8.40;;
68025;SDS011;54819;48.030;14.710;2023-05-14T10:17:04;10.40;;;7.90;;
68025;SDS011;54819;48.030;14.710;2023-05-14T10:19:33;10.20;;;7.70;;
68025;SDS011;54819;48.030;14.710;2023-05-14T10:22:04;10.40;;;6.90;;
68025;SDS011;54819;48.030;14.710;2023-05-14T10:24:33;10.40;;;8.00;;
68025;SDS011;54819;48.030;14.710;2023-05-14T10:29:37;10.50;;;7.10;;
68025;SDS011;54819;48.030;14.710;2023-05-14T10:32:05;10.60;;;7.00;;
68025;SDS011;54819;48.030;14.710;2023-05-14T10:34:35;10.30;;;7.40;;
68025;SDS011;54819;48.030;14.710;2023-05-14T10:37:06;10.20;;;7.60;;
68025;SDS011;54819;48.030;14.710;2023-05-14T10:39:45;9.10;;;6.50;;
68025;SDS011;54819;48.030;14.710;2023-05-14T10:42:23;9.90;;;6.60;;
68025;SDS011;54819;48.030;14.710;2023-05-14T10:44:57;8.50;;;6.20;;
68025;SDS011;54819;48.030;14.710;2023-05-14T10:47:27;10.10;;;6.90;;
68025;SDS011;54819;48.030;14.710;2023-05-14T10:49:57;8.50;;;5.40;;
68025;SDS011;54819;48.030;14.710;2023-05-14T10:52:25;10.50;;;6.80;;
68025;SDS011;54819;48.030;14.710;2023-05-14T10:54:57;9.30;;;6.10;;
68025;SDS011;54819;48.030;14.710;2023-05-14T10:57:30;6.90;;;5.40;;
68025;SDS011;54819;48.030;14.710;2023-05-14T10:59:59;8.80;;;6.10;;
68025;SDS011;54819;48.030;14.710;2023-05-14T11:02:28;7.60;;;5.40;;
68025;SDS011;54819;48.030;14.710;2023-05-14T11:05:04;8.10;;;6.00;;
68025;SDS011;54819;48.030;14.710;2023-05-14T11:07:46;6.90;;;4.80;;
68025;SDS011;54819;48.030;14.710;2023-05-14T11:10:18;8.10;;;4.60;;
68025;SDS011;54819;48.030;14.710;2023-05-14T11:12:48;6.30;;;4.30;;
68025;SDS011;54819;48.030;14.710;2023-05-14T11:15:18;6.90;;;4.70;;
68025;SDS011;54819;48.030;14.710;2023-05-14T11:17:47;5.90;;;3.90;;
68025;SDS011;54819;48.030;14.710;2023-05-14T11:20:16;6.60;;;4.80;;
68025;SDS011;54819;48.030;14.710;2023-05-14T11:22:45;5.90;;;4.30;;
68025;SDS011;54819;48.030;14.710;2023-05-14T11:25:14;5.80;;;4.40;;
68025;SDS011;54819;48.030;14.710;2023-05-14T11:27:45;4.80;;;3.30;;
68025;SDS011;54819;48.030;14.710;2023-05-14T11:30:15;5.20;;;3.90;;
68025;SDS011;54819;48.030;14.710;2023-05-14T11:32:47;5.70;;;3.50;;
68025;SDS011;54819;48.030;14.710;2023-05-14T11:35:16;4.50;;;3.20;;
68025;SDS011;54819;48.030;14.710;2023-05-14T11:37:49;4.50;;;3.10;;
68025;SDS011;54819;48.030;14.710;2023-05-14T11:40:20;4.10;;;2.70;;
68025;SDS011;54819;48.030;14.710;2023-05-14T11:42:50;6.90;;;4.00;;
68025;SDS011;54819;48.030;14.710;2023-05-14T11:45:27;5.80;;;3.40;;
68025;SDS011;54819;48.030;14.710;2023-05-14T11:47:55;3.80;;;2.50;;
68025;SDS011;54819;48.030;14.710;2023-05-14T11:50:22;4.60;;;3.20;;
68025;SDS011;54819;48.030;14.710;2023-05-14T11:52:49;4.50;;;2.50;;
68025;SDS011;54819;48.030;14.710;2023-05-14T11:55:16;3.80;;;2.60;;
68025;SDS011;54819;48.030;14.710;2023-05-14T11:57:43;3.30;;;2.10;;
68025;SDS011;54819;48.030;14.710;2023-05-14T12:00:10;4.00;;;2.60;;
68025;SDS011;54819;48.030;14.710;2023-05-14T12:02:47;4.90;;;2.80;;
68025;SDS011;54819;48.030;14.710;2023-05-14T12:05:17;3.90;;;2.30;;
68025;SDS011;54819;48.030;14.710;2023-05-14T12:07:44;3.90;;;2.50;;
68025;SDS011;54819;48.030;14.710;2023-05-14T12:10:12;3.80;;;2.70;;
68025;SDS011;54819;48.030;14.710;2023-05-14T12:12:39;3.70;;;2.60;;
68025;SDS011;54819;48.030;14.710;2023-05-14T12:15:10;4.00;;;2.50;;
68025;SDS011;54819;48.030;14.710;2023-05-14T12:17:49;3.70;;;2.40;;
68025;SDS011;54819;48.030;14.710;2023-05-14T12:20:17;5.40;;;2.70;;
68025;SDS011;54819;48.030;14.710;2023-05-14T12:22:44;5.00;;;3.10;;
68025;SDS011;54819;48.030;14.710;2023-05-14T12:25:11;5.40;;;2.50;;
68025;SDS011;54819;48.030;14.710;2023-05-14T12:27:40;4.40;;;2.50;;
68025;SDS011;54819;48.030;14.710;2023-05-14T12:30:11;4.60;;;2.90;;
68025;SDS011;54819;48.030;14.710;2023-05-14T12:32:45;3.70;;;2.30;;
68025;SDS011;54819;48.030;14.710;2023-05-14T12:35:12;4.70;;;2.50;;
68025;SDS011;54819;48.030;14.710;2023-05-14T12:37:38;3.60;;;2.30;;
68025;SDS011;54819;48.030;14.710;2023-05-14T12:40:06;4.40;;;2.50;;
68025;SDS011;54819;48.030;14.710;2023-05-14T12:42:35;4.80;;;3.00;;
68025;SDS011;54819;48.030;14.710;2023-05-14T12:45:02;4.80;;;2.50;;
68025;SDS011;54819;48.030;14.710;2023-05-14T12:47:32;4.60;;;2.80;;
68025;SDS011;54819;48.030;14.710;2023-05-14T12:50:00;4.60;;;2.50;;
68025;SDS011;54819;48.030;14.710;2023-05-14T12:52:27;4.70;;;2.70;;
68025;SDS011;54819;48.030;14.710;2023-05-14T12:55:08;4.40;;;2.70;;
68025;SDS011;54819;48.030;14.710;2023-05-14T12:57:36;3.80;;;2.50;;
68025;SDS011;54819;48.030;14.710;2023-05-14T13:00:06;4.60;;;2.60;;
68025;SDS011;54819;48.030;14.710;2023-05-14T13:02:40;3.10;;;2.00;;
68025;SDS011;54819;48.030;14.710;2023-05-14T13:05:12;3.40;;;2.50;;
68025;SDS011;54819;48.030;14.710;2023-05-14T13:07:39;3.90;;;2.50;;
68025;SDS011;54819;48.030;14.710;2023-05-14T13:10:06;3.60;;;2.50;;
68025;SDS011;54819;48.030;14.710;2023-05-14T13:12:34;3.50;;;2.20;;
68025;SDS011;54819;48.030;14.710;2023-05-14T13:15:01;3.10;;;2.00;;
68025;SDS011;54819;48.030;14.710;2023-05-14T13:17:27;3.00;;;1.80;;
68025;SDS011;54819;48.030;14.710;2023-05-14T13:19:54;3.40;;;2.10;;
68025;SDS011;54819;48.030;14.710;2023-05-14T13:22:21;3.10;;;2.10;;
68025;SDS011;54819;48.030;14.710;2023-05-14T13:24:48;3.90;;;2.30;;
68025;SDS011;54819;48.030;14.710;2023-05-14T13:27:14;2.80;;;1.80;;
68025;SDS011;54819;48.030;14.710;2023-05-14T13:29:41;2.80;;;1.80;;
68025;SDS011;54819;48.030;14.710;2023-05-14T13:32:08;3.20;;;1.90;;
68025;SDS011;54819;48.030;14.710;2023-05-14T13:34:35;3.20;;;1.80;;
68025;SDS011;54819;48.030;14.710;2023-05-14T13:37:02;2.90;;;1.80;;
68025;SDS011;54819;48.030;14.710;2023-05-14T13:39:29;3.20;;;1.90;;
68025;SDS011;54819;48.030;14.710;2023-05-14T13:41:56;3.00;;;2.10;;
68025;SDS011;54819;48.030;14.710;2023-05-14T13:44:23;3.20;;;2.00;;
68025;SDS011;54819;48.030;14.710;2023-05-14T13:46:49;3.30;;;1.50;;
68025;SDS011;54819;48.030;14.710;2023-05-14T13:49:17;2.90;;;1.80;;
68025;SDS011;54819;48.030;14.710;2023-05-14T13:51:44;4.60;;;2.10;;
68025;SDS011;54819;48.030;14.710;2023-05-14T13:54:11;3.40;;;1.70;;
68025;SDS011;54819;48.030;14.710;2023-05-14T13:56:38;3.10;;;2.00;;
68025;SDS011;54819;48.030;14.710;2023-05-14T13:59:04;2.70;;;1.80;;
68025;SDS011;54819;48.030;14.710;2023-05-14T14:01:31;2.80;;;1.60;;
68025;SDS011;54819;48.030;14.710;2023-05-14T14:03:58;3.10;;;2.00;;
68025;SDS011;54819;48.030;14.710;2023-05-14T14:06:26;3.40;;;2.00;;
68025;SDS011;54819;48.030;14.710;2023-05-14T14:08:53;3.10;;;1.70;;
68025;SDS011;54819;48.030;14.710;2023-05-14T14:11:19;2.90;;;1.70;;
68025;SDS011;54819;48.030;14.710;2023-05-14T14:13:47;3.30;;;1.90;;
68025;SDS011;54819;48.030;14.710;2023-05-14T14:16:14;4.10;;;2.30;;
68025;SDS011;54819;48.030;14.710;2023-05-14T14:18:41;3.70;;;1.80;;
68025;SDS011;54819;48.030;14.710;2023-05-14T14:21:09;3.50;;;2.00;;
68025;SDS011;54819;48.030;14.710;2023-05-14T14:23:36;5.00;;;2.10;;
68025;SDS011;54819;48.030;14.710;2023-05-14T14:26:02;2.90;;;1.90;;
68025;SDS011;54819;48.030;14.710;2023-05-14T14:28:29;3.30;;;1.70;;
68025;SDS011;54819;48.030;14.710;2023-05-14T14:30:56;2.90;;;1.70;;
68025;SDS011;54819;48.030;14.710;2023-05-14T14:33:23;3.00;;;1.90;;
68025;SDS011;54819;48.030;14.710;2023-05-14T14:35:50;3.10;;;1.90;;
68025;SDS011;54819;48.030;14.710;2023-05-14T14:38:18;2.80;;;1.80;;
68025;SDS011;54819;48.030;14.710;2023-05-14T14:40:45;2.70;;;1.80;;
68025;SDS011;54819;48.030;14.710;2023-05-14T14:43:12;2.80;;;1.80;;
68025;SDS011;54819;48.030;14.710;2023-05-14T14:45:38;2.80;;;1.90;;
68025;SDS011;54819;48.030;14.710;2023-05-14T14:50:52;3.00;;;1.70;;
68025;SDS011;54819;48.030;14.710;2023-05-14T14:53:20;2.70;;;1.60;;
68025;SDS011;54819;48.030;14.710;2023-05-14T14:55:48;3.30;;;1.40;;
68025;SDS011;54819;48.030;14.710;2023-05-14T14:58:17;2.40;;;1.30;;
68025;SDS011;54819;48.030;14.710;2023-05-14T15:00:45;3.00;;;1.60;;